Hauptseite
METAR-TAF:

METAR-TAF

Flughäfen :

London, England

London City Airport

Breite: 51-30N, Länge: 000-03E, Höhe: 5 m

Beobachtung

Neuester Wetterbericht von vor 32 Minuten, um 05:20 UTC
Wind 12 kt aus West/Südwest
Temperatur 8°C
Luftfeuchtigkeit 81%
Luftdruck 1015 hPa
Sichtweite 10 km oder mehr

METAR: EGLC 260520Z AUTO 25012KT 9999 NCD 08/05 Q1015

Zeit: 06:52 (05:52 UTC)

Prognose

Neuester Wetterbericht von vor 52 Minuten, um 05:00 UTC
Gültige Prognose vom 26 um 06 UTC bis 26 um 15 UTC
Wind 12 kt aus West/Südwest
Sichtweite 10 km oder mehr
Leicht bewölkt in der Höhe von 3500 ft
Wahrscheinlichkeit 30% :
Zeitweise
vom 26 um 09 UTC bis 26 um 15 UTC
Wind 15 kt aus West, Böen bis zu 25 kt

TAF: EGLC 260500Z 2606/2615 24012KT 9999 FEW035 PROB30 TEMPO 2609/2615 27015G25KT

Wetterbeobachtungen und Prognosen von mehr als 4000 Flughäfen (METAR und TAF Bericht).

Die verfügbaren Stationen werden durch gelbe und rote Markierungen auf der Karte dargestellt.

Führen Sie die Maus auf sie, um den Namen der Station zu sehen.

Darauf klicken, um die Beobachtung von Wetterbeobachtungen und Prognosen zu sehen.

Um die Karte zu ändern : klicken Sie auf den grünen Tasten mit einem schwarzen Kreuz Zum Vergrößern, auf den grünen Button mit einem Gedankenstrich zu verkleinern, oder auf die grünen Pfeile für benachbarte Karten.


METAR-TAF: